sensor_id;sensor_type;location;lat;lon;timestamp;P1;durP1;ratioP1;P2;durP2;ratioP2
46505;SDS011;32220;49.808;9.968;2023-12-22T10:42:07;1.63;;;0.80;;
46505;SDS011;32220;49.808;9.968;2023-12-22T10:44:37;0.90;;;0.57;;
46505;SDS011;32220;49.808;9.968;2023-12-22T10:47:07;1.53;;;0.80;;
46505;SDS011;32220;49.808;9.968;2023-12-22T10:50:05;0.90;;;0.60;;
46505;SDS011;32220;49.808;9.968;2023-12-22T10:52:53;1.23;;;0.50;;
46505;SDS011;32220;49.808;9.968;2023-12-22T10:55:27;1.80;;;0.60;;
46505;SDS011;32220;49.808;9.968;2023-12-22T10:58:17;0.77;;;0.60;;
46505;SDS011;32220;49.808;9.968;2023-12-22T11:00:45;2.80;;;0.70;;
46505;SDS011;32220;49.808;9.968;2023-12-22T11:03:17;0.80;;;0.60;;
46505;SDS011;32220;49.808;9.968;2023-12-22T11:05:48;2.00;;;1.13;;
46505;SDS011;32220;49.808;9.968;2023-12-22T11:08:21;3.37;;;0.90;;
46505;SDS011;32220;49.808;9.968;2023-12-22T11:11:27;1.60;;;0.80;;
46505;SDS011;32220;49.808;9.968;2023-12-22T11:14:01;1.50;;;0.80;;
46505;SDS011;32220;49.808;9.968;2023-12-22T11:16:57;2.00;;;1.10;;
46505;SDS011;32220;49.808;9.968;2023-12-22T11:19:27;2.77;;;0.70;;
46505;SDS011;32220;49.808;9.968;2023-12-22T11:22:16;5.00;;;1.50;;
46505;SDS011;32220;49.808;9.968;2023-12-22T11:25:00;1.73;;;0.90;;
46505;SDS011;32220;49.808;9.968;2023-12-22T11:27:54;3.63;;;1.10;;
46505;SDS011;32220;49.808;9.968;2023-12-22T11:30:24;6.50;;;1.40;;
46505;SDS011;32220;49.808;9.968;2023-12-22T11:33:12;2.53;;;1.47;;
46505;SDS011;32220;49.808;9.968;2023-12-22T11:35:46;4.10;;;1.10;;
46505;SDS011;32220;49.808;9.968;2023-12-22T11:38:13;3.33;;;1.40;;
46505;SDS011;32220;49.808;9.968;2023-12-22T11:40:42;5.40;;;1.47;;
46505;SDS011;32220;49.808;9.968;2023-12-22T11:43:12;4.57;;;1.40;;
46505;SDS011;32220;49.808;9.968;2023-12-22T11:45:53;3.83;;;1.40;;
46505;SDS011;32220;49.808;9.968;2023-12-22T11:48:23;3.87;;;1.13;;
46505;SDS011;32220;49.808;9.968;2023-12-22T11:51:37;5.17;;;1.50;;
46505;SDS011;32220;49.808;9.968;2023-12-22T11:54:43;8.87;;;1.70;;
46505;SDS011;32220;49.808;9.968;2023-12-22T11:57:30;2.53;;;1.40;;
46505;SDS011;32220;49.808;9.968;2023-12-22T12:03:29;7.67;;;1.40;;
46505;SDS011;32220;49.808;9.968;2023-12-22T12:06:16;5.27;;;1.30;;
46505;SDS011;32220;49.808;9.968;2023-12-22T12:08:48;4.13;;;1.73;;
46505;SDS011;32220;49.808;9.968;2023-12-22T12:11:17;4.13;;;1.50;;
46505;SDS011;32220;49.808;9.968;2023-12-22T12:13:45;6.33;;;2.10;;
46505;SDS011;32220;49.808;9.968;2023-12-22T12:16:37;6.80;;;1.83;;
46505;SDS011;32220;49.808;9.968;2023-12-22T12:19:08;9.63;;;1.93;;
46505;SDS011;32220;49.808;9.968;2023-12-22T12:21:36;5.37;;;1.73;;
46505;SDS011;32220;49.808;9.968;2023-12-22T12:24:04;4.87;;;1.50;;
46505;SDS011;32220;49.808;9.968;2023-12-22T12:26:34;4.93;;;1.90;;
46505;SDS011;32220;49.808;9.968;2023-12-22T12:29:05;7.10;;;1.90;;
46505;SDS011;32220;49.808;9.968;2023-12-22T12:31:36;9.23;;;1.87;;
46505;SDS011;32220;49.808;9.968;2023-12-22T12:34:17;7.57;;;1.73;;
46505;SDS011;32220;49.808;9.968;2023-12-22T12:36:51;7.50;;;1.40;;
46505;SDS011;32220;49.808;9.968;2023-12-22T12:42:06;4.47;;;1.63;;
46505;SDS011;32220;49.808;9.968;2023-12-22T12:44:35;8.00;;;1.77;;
46505;SDS011;32220;49.808;9.968;2023-12-22T12:47:11;7.33;;;1.93;;
46505;SDS011;32220;49.808;9.968;2023-12-22T12:52:27;2.60;;;1.40;;
46505;SDS011;32220;49.808;9.968;2023-12-22T12:54:55;8.10;;;1.67;;
46505;SDS011;32220;49.808;9.968;2023-12-22T12:57:47;5.10;;;1.67;;
46505;SDS011;32220;49.808;9.968;2023-12-22T13:00:24;3.53;;;1.63;;
46505;SDS011;32220;49.808;9.968;2023-12-22T13:02:53;5.67;;;1.20;;
46505;SDS011;32220;49.808;9.968;2023-12-22T13:05:44;4.27;;;1.50;;
46505;SDS011;32220;49.808;9.968;2023-12-22T13:08:12;5.30;;;1.50;;
46505;SDS011;32220;49.808;9.968;2023-12-22T13:10:40;5.50;;;1.43;;
46505;SDS011;32220;49.808;9.968;2023-12-22T13:13:08;2.37;;;1.17;;
46505;SDS011;32220;49.808;9.968;2023-12-22T13:15:39;7.57;;;1.67;;
46505;SDS011;32220;49.808;9.968;2023-12-22T13:18:07;5.73;;;1.13;;
